Terminal Aerodrome Forecast
Issued by NWS Lake Charles, LA

Home | Current Version | Previous Version | Text Only | Print | Product List | Glossary On
Versions: 1 2 3 4 5 6 7 8 9 10 11 12 13
000
FTUS44 KLCH 261734
TAFLFT
TAF
KLFT 261734Z 2618/2718 VRB04KT P6SM VCTS SCT025CB BKN035 OVC040
      TEMPO 2618/2622 BKN025CB OVC035
     FM262200 30010KT P6SM VCSH OVC025
     FM270000 35014G21KT P6SM OVC015
     FM270600 36009KT P6SM OVC010
     FM271200 35004KT P6SM SCT018=

USA.gov is the U.S. government's official web portal to all federal, state and local government web resources and services.